Time;durP1;ratioP1;P1;durP2;ratioP2;P2;SDS_P1;SDS_P2;PMS_P1;PMS_P2;Temp;Humidity;BMP_temperature;BMP_pressure;BME280_temperature;BME280_humidity;BME280_pressure;Samples;Min_cycle;Max_cycle;Signal;HPM_P1;HPM_P2
2021/03/18 00:02:16;;;;;;;14.95;7.22;;;;;;;29.75;54.46;100891.09;5041544;28;66082;-32
2021/03/18 00:04:46;;;;;;;10.65;7.10;;;;;;;29.78;54.56;100894.25;5038689;28;69036;-33
2021/03/18 00:07:16;;;;;;;8.18;6.68;;;;;;;29.81;54.32;100890.25;5043113;28;66925;-33
2021/03/18 00:09:45;;;;;;;11.55;6.88;;;;;;;29.86;54.74;100895.03;5039559;28;69310;-32
2021/03/18 00:12:16;;;;;;;14.73;9.07;;;;;;;29.91;55.07;100903.34;5038467;28;66176;-34
2021/03/18 00:14:45;;;;;;;8.95;8.07;;;;;;;29.91;55.63;100897.94;5023860;28;69000;-33
2021/03/18 00:17:15;;;;;;;13.68;7.35;;;;;;;29.95;55.85;100896.44;5033795;28;65352;-34
2021/03/18 00:19:45;;;;;;;15.75;7.57;;;;;;;29.97;55.92;100905.19;5043248;28;69337;-32
2021/03/18 00:22:16;;;;;;;11.82;7.75;;;;;;;30.00;56.00;100899.34;5055389;28;65505;-32
2021/03/18 00:24:45;;;;;;;8.30;6.75;;;;;;;30.02;55.65;100905.38;5047417;28;69401;-38
2021/03/18 00:27:21;;;;;;;7.63;6.93;;;;;;;30.06;56.08;100901.19;5041587;28;65849;-41
2021/03/18 00:29:51;;;;;;;7.68;6.50;;;;;;;30.07;56.31;100902.88;5041700;28;70744;-44
2021/03/18 00:32:21;;;;;;;8.80;6.65;;;;;;;30.04;56.42;100897.91;5037538;28;66718;-40
2021/03/18 00:34:52;;;;;;;12.32;6.85;;;;;;;29.96;57.12;100901.66;5039885;28;70362;-41
2021/03/18 00:37:22;;;;;;;18.83;7.68;;;;;;;29.94;56.65;100903.75;5033908;28;67694;-40
2021/03/18 00:39:57;;;;;;;8.80;6.47;;;;;;;29.95;56.67;100905.41;5038008;28;70140;-40
2021/03/18 00:42:26;;;;;;;12.13;7.40;;;;;;;29.97;56.28;100913.31;5029767;28;66141;-40
2021/03/18 00:44:56;;;;;;;8.52;7.13;;;;;;;29.98;56.41;100914.97;5034807;28;68065;-41
2021/03/18 00:47:26;;;;;;;10.65;7.03;;;;;;;29.97;56.38;100910.59;5024394;28;65950;-43
2021/03/18 00:49:56;;;;;;;11.20;6.97;;;;;;;29.88;55.80;100893.78;5034634;28;71224;-44
2021/03/18 00:52:26;;;;;;;12.50;7.60;;;;;;;29.98;56.10;100909.56;5033897;28;66526;-45
2021/03/18 00:54:56;;;;;;;8.60;7.20;;;;;;;30.00;55.69;100912.88;5036010;28;69881;-40
2021/03/18 00:57:26;;;;;;;8.30;6.88;;;;;;;30.00;55.79;100911.00;5032291;28;66164;-41
2021/03/18 00:59:56;;;;;;;11.20;7.72;;;;;;;30.02;55.19;100918.91;5033349;28;70011;-41
2021/03/18 01:02:26;;;;;;;10.07;7.50;;;;;;;30.03;55.23;100920.56;5035976;28;65360;-41
2021/03/18 01:04:57;;;;;;;10.02;8.15;;;;;;;30.04;55.08;100927.66;5043899;27;69774;-40
2021/03/18 01:07:27;;;;;;;12.20;7.63;;;;;;;30.04;55.23;100919.53;5040980;28;65920;-42
2021/03/18 01:09:57;;;;;;;12.73;9.52;;;;;;;30.06;54.85;100917.41;5041772;28;70077;-40
2021/03/18 01:12:27;;;;;;;12.30;8.88;;;;;;;30.05;55.15;100921.19;5040486;28;65906;-41
2021/03/18 01:14:57;;;;;;;11.30;9.10;;;;;;;30.08;54.67;100926.16;5039928;28;72381;-41
2021/03/18 01:17:28;;;;;;;15.73;9.50;;;;;;;30.13;54.95;100928.25;5044984;28;66155;-42
2021/03/18 01:19:58;;;;;;;15.43;9.23;;;;;;;30.10;54.49;100929.50;5037247;28;70602;-41
2021/03/18 01:22:28;;;;;;;13.00;8.73;;;;;;;30.15;54.36;100932.38;5039141;28;65260;-41
2021/03/18 01:25:00;;;;;;;12.10;9.00;;;;;;;30.16;54.30;100933.22;5042331;28;69595;-41
2021/03/18 01:27:29;;;;;;;10.50;8.27;;;;;;;30.20;53.97;100943.41;5044462;28;65969;-42
2021/03/18 01:30:00;;;;;;;11.82;8.73;;;;;;;30.20;54.19;100939.84;5039569;28;69376;-42
2021/03/18 01:32:38;;;;;;;10.63;9.05;;;;;;;30.19;54.03;100939.03;5038152;28;65831;-41
2021/03/18 01:35:13;;;;;;;13.60;8.63;;;;;;;30.12;53.99;100923.88;5025278;28;70476;-40
2021/03/18 01:37:43;;;;;;;14.05;8.93;;;;;;;30.23;53.95;100934.88;5039575;28;65654;-41
2021/03/18 01:40:17;;;;;;;17.15;9.25;;;;;;;30.23;53.66;100947.59;5048023;28;69254;-40
2021/03/18 01:42:47;;;;;;;14.27;8.65;;;;;;;30.25;54.05;100937.38;5037756;28;65335;-39
2021/03/18 01:45:17;;;;;;;15.95;9.18;;;;;;;30.30;53.68;100950.25;5036929;28;70492;-41
2021/03/18 01:47:50;;;;;;;19.55;9.48;;;;;;;30.25;53.22;100932.78;5051176;28;66126;-41
2021/03/18 01:50:23;;;;;;;12.90;8.82;;;;;;;30.26;53.39;100934.47;5045072;28;69728;-40
2021/03/18 01:52:55;;;;;;;9.35;7.93;;;;;;;30.36;53.21;100949.41;5036762;28;65700;-39
2021/03/18 01:55:29;;;;;;;19.13;9.10;;;;;;;30.41;53.47;100949.59;5035616;28;69691;-41
2021/03/18 01:58:00;;;;;;;11.25;8.13;;;;;;;30.41;53.09;100945.00;5038533;28;65438;-41
2021/03/18 02:00:31;;;;;;;15.32;9.10;;;;;;;30.37;53.43;100946.47;5045702;28;69427;-39
2021/03/18 02:03:03;;;;;;;12.02;8.60;;;;;;;30.42;53.15;100951.22;5033951;28;65834;-39
2021/03/18 02:05:34;;;;;;;12.18;8.10;;;;;;;30.48;52.83;100950.41;5036019;28;70608;-40
2021/03/18 02:08:04;;;;;;;13.05;8.13;;;;;;;30.49;52.99;100949.34;5036657;28;65362;-41
2021/03/18 02:10:37;;;;;;;10.23;7.93;;;;;;;30.44;53.22;100930.19;5035442;28;70506;-41
2021/03/18 02:13:10;;;;;;;12.07;8.80;;;;;;;30.37;52.60;100923.97;5036757;28;65540;-40
2021/03/18 02:15:45;;;;;;;13.27;8.63;;;;;;;30.58;52.75;100953.44;5035900;28;70587;-39
2021/03/18 02:18:15;;;;;;;14.02;7.75;;;;;;;30.61;52.80;100953.00;5032682;28;66755;-41
2021/03/18 02:21:12;;;;;;;9.23;8.25;;;;;;;30.60;52.83;100955.94;5037967;28;69845;-41
2021/03/18 02:24:09;;;;;;;9.52;8.15;;;;;;;30.64;52.78;100952.56;5034985;28;65949;-39
2021/03/18 02:27:07;;;;;;;11.15;8.50;;;;;;;30.64;52.98;100951.75;5032500;28;70654;-41
2021/03/18 02:30:10;;;;;;;10.90;8.90;;;;;;;30.69;52.79;100950.03;5031811;28;66008;-39
2021/03/18 02:33:13;;;;;;;12.95;9.10;;;;;;;30.75;52.62;100952.94;5030627;28;69834;-41
2021/03/18 02:35:50;;;;;;;13.07;8.15;;;;;;;30.69;52.56;100941.91;5035865;28;65835;-41
2021/03/18 02:38:35;;;;;;;10.73;8.02;;;;;;;30.77;52.12;100954.38;5032384;28;70934;-41
2021/03/18 02:41:18;;;;;;;8.32;7.50;;;;;;;30.81;52.29;100957.50;5036576;28;65389;-42
2021/03/18 02:43:59;;;;;;;10.18;7.80;;;;;;;30.91;52.03;100963.28;5035358;28;70511;-40
2021/03/18 02:46:32;;;;;;;10.80;8.00;;;;;;;30.94;51.74;100968.25;5035616;28;65396;-40
2021/03/18 02:49:04;;;;;;;9.25;7.90;;;;;;;30.98;51.52;100969.50;5035221;28;70257;-40
2021/03/18 02:51:37;;;;;;;8.57;7.13;;;;;;;30.91;51.91;100958.69;5034486;28;67098;-40
2021/03/18 02:54:13;;;;;;;9.57;7.85;;;;;;;30.99;51.65;100965.72;5034152;28;69997;-39
2021/03/18 02:56:49;;;;;;;9.07;8.15;;;;;;;31.04;51.67;100974.03;5026182;28;65630;-39
2021/03/18 02:59:27;;;;;;;14.13;7.85;;;;;;;31.07;51.67;100976.31;5030715;28;70209;-40
2021/03/18 03:02:00;;;;;;;15.18;7.70;;;;;;;31.11;51.50;100961.25;5026973;28;65397;-39
2021/03/18 03:04:35;;;;;;;11.57;7.95;;;;;;;31.15;51.60;100958.94;5036240;28;69185;-41
2021/03/18 03:07:07;;;;;;;11.18;7.80;;;;;;;31.09;51.53;100943.56;5028504;28;65870;-41
2021/03/18 03:09:38;;;;;;;9.25;7.30;;;;;;;31.21;51.16;100951.81;5034668;28;70221;-40
2021/03/18 03:12:09;;;;;;;11.13;7.10;;;;;;;31.24;50.88;100951.38;5028546;28;65538;-39
2021/03/18 03:14:42;;;;;;;10.70;8.00;;;;;;;31.15;51.37;100937.28;5035288;28;70825;-39
2021/03/18 03:17:15;;;;;;;11.38;7.50;;;;;;;31.28;51.12;100942.56;5036826;28;65834;-40
2021/03/18 03:19:46;;;;;;;9.80;8.60;;;;;;;31.29;50.99;100951.53;5035609;28;69279;-41
2021/03/18 03:22:17;;;;;;;14.13;7.72;;;;;;;31.34;51.20;100946.25;5031321;28;66480;-41
2021/03/18 03:24:48;;;;;;;10.93;7.75;;;;;;;31.35;50.84;100943.34;5035184;28;70148;-40
2021/03/18 03:27:19;;;;;;;14.02;7.95;;;;;;;31.37;50.59;100944.00;5035841;28;66201;-42
2021/03/18 03:29:48;;;;;;;10.40;7.68;;;;;;;31.41;50.45;100938.94;5036974;28;69948;-39
2021/03/18 03:32:18;;;;;;;8.98;7.82;;;;;;;31.44;50.74;100930.38;5034753;28;65493;-40
2021/03/18 03:34:48;;;;;;;7.95;7.22;;;;;;;31.48;50.45;100930.75;5034169;28;68994;-40
2021/03/18 03:37:18;;;;;;;8.20;7.35;;;;;;;31.52;50.55;100927.38;5036099;28;66143;-43
2021/03/18 03:39:48;;;;;;;12.98;8.48;;;;;;;31.55;50.37;100926.91;5036371;28;69210;-39
2021/03/18 03:42:19;;;;;;;9.02;7.95;;;;;;;31.56;50.21;100917.72;5034086;28;65456;-40
2021/03/18 03:44:49;;;;;;;10.70;8.85;;;;;;;31.60;50.47;100929.78;5033339;28;69076;-42
2021/03/18 03:47:20;;;;;;;8.60;7.10;;;;;;;31.59;50.33;100917.31;5066392;27;64859;-42
2021/03/18 03:49:51;;;;;;;10.02;8.20;;;;;;;31.65;50.23;100920.13;5034812;28;70070;-40
2021/03/18 03:52:34;;;;;;;9.23;8.18;;;;;;;31.67;50.17;100918.03;5051191;28;65946;-41
2021/03/18 03:55:51;;;;;;;9.05;8.23;;;;;;;31.69;50.37;100910.53;5037849;28;69300;-40
2021/03/18 03:58:53;;;;;;;10.32;7.90;;;;;;;31.75;49.97;100904.19;5028765;28;65474;-40
2021/03/18 04:01:35;;;;;;;8.65;7.63;;;;;;;31.82;49.90;100903.06;5042476;28;69477;-40
2021/03/18 04:04:33;;;;;;;8.88;7.82;;;;;;;31.87;49.41;100901.53;5038172;28;65319;-40
2021/03/18 04:07:14;;;;;;;8.77;8.00;;;;;;;31.84;49.65;100902.81;5049407;28;69285;-40
2021/03/18 04:09:45;;;;;;;9.90;8.45;;;;;;;31.89;49.53;100894.00;5040026;28;66182;-40
2021/03/18 04:12:20;;;;;;;11.35;8.73;;;;;;;31.92;49.77;100897.13;5038116;28;70592;-40
2021/03/18 04:14:57;;;;;;;12.13;8.43;;;;;;;31.95;49.68;100888.53;5046830;28;65961;-40
2021/03/18 04:17:28;;;;;;;8.90;8.10;;;;;;;32.00;49.60;100888.69;5049200;28;70097;-40
2021/03/18 04:20:01;;;;;;;11.20;8.63;;;;;;;31.99;49.23;100884.31;5043424;27;65335;-39
2021/03/18 04:22:32;;;;;;;9.23;8.38;;;;;;;32.01;49.34;100876.78;5047671;27;70057;-40
2021/03/18 04:25:06;;;;;;;9.73;8.73;;;;;;;32.05;49.62;100882.56;5055098;28;65432;-41
2021/03/18 04:27:37;;;;;;;10.65;8.82;;;;;;;32.08;49.12;100889.44;5057182;27;69921;-39
2021/03/18 04:30:10;;;;;;;13.30;8.98;;;;;;;32.11;49.47;100878.13;5052496;28;67202;-41
2021/03/18 04:32:42;;;;;;;9.63;8.40;;;;;;;32.15;49.46;100874.72;5054370;27;70006;-41
2021/03/18 04:35:13;;;;;;;11.50;8.73;;;;;;;32.20;49.31;100868.59;5042191;27;65984;-41
2021/03/18 04:37:44;;;;;;;12.18;8.10;;;;;;;32.22;49.40;100866.50;5048220;28;69849;-40
2021/03/18 04:40:17;;;;;;;8.65;8.02;;;;;;;32.13;48.97;100841.56;5052565;28;66325;-41
2021/03/18 04:42:49;;;;;;;9.50;8.57;;;;;;;32.26;49.02;100856.81;5048982;28;69833;-41
2021/03/18 04:45:25;;;;;;;8.75;7.95;;;;;;;32.19;48.69;100843.34;5049655;28;65463;-40
2021/03/18 04:47:55;;;;;;;10.90;8.13;;;;;;;32.30;48.97;100851.78;5051218;28;69337;-41
2021/03/18 04:50:28;;;;;;;8.75;8.02;;;;;;;32.28;49.05;100843.84;5050651;28;65753;-41
2021/03/18 04:52:59;;;;;;;10.18;8.77;;;;;;;32.35;48.67;100852.72;5038948;27;70009;-40
2021/03/18 04:55:29;;;;;;;9.68;8.60;;;;;;;32.40;49.17;100852.88;5039232;28;66120;-39
2021/03/18 04:58:06;;;;;;;10.02;8.90;;;;;;;32.43;48.81;100852.41;5041293;28;69623;-41
2021/03/18 05:00:38;;;;;;;10.75;8.77;;;;;;;32.46;48.63;100845.72;5044113;28;66337;-41
2021/03/18 05:03:10;;;;;;;13.13;8.80;;;;;;;32.48;48.75;100840.88;5045192;28;69720;-41
2021/03/18 05:05:40;;;;;;;10.38;8.93;;;;;;;32.51;49.12;100842.28;5043011;28;65845;-42
2021/03/18 05:08:12;;;;;;;10.95;8.43;;;;;;;32.55;48.59;100840.78;5040570;27;68738;-39
2021/03/18 05:10:43;;;;;;;9.07;8.27;;;;;;;32.57;48.36;100833.22;5042694;28;65403;-39
2021/03/18 05:13:14;;;;;;;10.10;8.93;;;;;;;32.61;48.80;100831.69;5028827;27;69911;-40
2021/03/18 05:15:46;;;;;;;9.60;8.55;;;;;;;32.63;48.86;100843.16;5038824;28;66460;-39
2021/03/18 05:18:17;;;;;;;9.73;8.73;;;;;;;32.63;48.51;100829.59;5042471;28;70360;-39
2021/03/18 05:20:48;;;;;;;;;;;;;;;32.64;48.64;100832.03;5043734;28;65950;-43
2021/03/18 05:23:20;;;;;;;9.10;8.07;;;;;;;32.69;48.81;100823.22;5049818;28;69473;-40
2021/03/18 05:25:50;;;;;;;;;;;;;;;32.77;48.03;100830.19;5045617;28;66172;-40
2021/03/18 05:28:21;;;;;;;11.48;8.70;;;;;;;32.82;48.26;100838.44;5038505;27;69979;-41
2021/03/18 05:30:52;;;;;;;10.32;8.75;;;;;;;32.81;48.32;100823.22;5038272;27;66994;-40
2021/03/18 05:33:23;;;;;;;8.93;8.23;;;;;;;32.81;48.26;100815.88;5044628;28;68822;-40
2021/03/18 05:35:54;;;;;;;12.67;8.50;;;;;;;32.80;48.93;100816.97;5038276;28;66535;-40
2021/03/18 05:38:25;;;;;;;8.75;7.80;;;;;;;32.80;48.49;100814.25;5038616;27;69035;-41
2021/03/18 05:41:00;;;;;;;9.55;8.38;;;;;;;32.84;48.73;100815.41;5040157;28;65662;-40
2021/03/18 05:43:33;;;;;;;9.93;8.50;;;;;;;32.85;48.84;100806.22;5040914;28;69846;-39
2021/03/18 05:46:04;;;;;;;9.00;8.13;;;;;;;32.88;48.52;100805.75;5035453;27;65279;-39
2021/03/18 05:48:37;;;;;;;8.88;8.18;;;;;;;32.88;48.92;100794.88;5033803;28;69651;-41
2021/03/18 05:51:15;;;;;;;7.95;7.35;;;;;;;32.83;48.83;100785.78;5038777;28;66248;-38
2021/03/18 05:53:48;;;;;;;10.18;7.80;;;;;;;32.93;48.68;100780.56;5046828;28;69618;-41
2021/03/18 05:56:24;;;;;;;8.75;7.93;;;;;;;32.91;48.64;100775.38;5037538;28;66271;-40
2021/03/18 05:59:01;;;;;;;9.07;8.23;;;;;;;33.00;48.47;100781.31;5016665;28;69592;-38
2021/03/18 06:01:33;;;;;;;9.60;8.68;;;;;;;33.02;48.56;100775.66;5036823;28;66620;-39
2021/03/18 06:04:04;;;;;;;8.93;7.72;;;;;;;33.04;48.80;100776.22;5038190;28;69962;-39
2021/03/18 06:06:42;;;;;;;8.35;7.65;;;;;;;33.06;48.54;100777.63;5034314;28;66275;-38
2021/03/18 06:09:14;;;;;;;10.00;7.28;;;;;;;33.07;48.68;100763.00;5038469;27;70563;-39
2021/03/18 06:11:44;;;;;;;8.30;7.53;;;;;;;33.11;48.26;100768.78;5036609;28;66140;-39
2021/03/18 06:14:14;;;;;;;7.90;7.10;;;;;;;33.10;48.17;100759.00;5034799;28;69875;-40
2021/03/18 06:16:49;;;;;;;11.90;7.93;;;;;;;33.06;48.54;100746.94;5035325;28;66610;-41
2021/03/18 06:19:19;;;;;;;8.00;7.30;;;;;;;33.16;48.41;100760.75;5033020;28;69203;-43
2021/03/18 06:21:55;;;;;;;7.85;7.15;;;;;;;33.18;48.43;100757.78;5037343;28;66757;-39
2021/03/18 06:24:29;;;;;;;8.30;7.50;;;;;;;33.23;48.24;100752.44;5036032;28;69352;-39
2021/03/18 06:27:00;;;;;;;8.40;6.97;;;;;;;33.27;48.57;100749.03;5035733;28;66014;-39
2021/03/18 06:29:38;;;;;;;9.55;6.95;;;;;;;33.29;48.32;100752.34;5043648;28;69911;-42
2021/03/18 06:32:16;;;;;;;11.90;7.60;;;;;;;33.31;48.30;100752.91;5043700;28;66368;-40
2021/03/18 06:34:50;;;;;;;8.02;7.18;;;;;;;33.34;48.40;100741.53;5046394;28;70543;-40
2021/03/18 06:37:36;;;;;;;11.02;7.70;;;;;;;33.35;48.41;100748.66;5056311;27;65417;-38
2021/03/18 06:40:14;;;;;;;9.45;7.35;;;;;;;33.43;48.51;100730.28;5042023;27;69328;-39
2021/03/18 06:43:05;;;;;;;8.60;7.25;;;;;;;33.44;48.08;100737.41;5043746;27;65294;-43
2021/03/18 06:45:41;;;;;;;7.40;6.72;;;;;;;33.49;48.18;100726.59;5054671;28;69377;-40
2021/03/18 06:48:16;;;;;;;7.60;6.90;;;;;;;33.48;48.00;100723.06;5045121;28;65940;-39
2021/03/18 06:50:57;;;;;;;7.07;6.38;;;;;;;33.53;48.37;100722.38;5046081;27;70108;-43
2021/03/18 06:53:29;;;;;;;7.20;6.55;;;;;;;33.60;48.27;100714.91;5046689;27;65983;-39
2021/03/18 06:56:01;;;;;;;9.40;7.07;;;;;;;33.61;48.20;100729.31;5038217;28;69266;-40
2021/03/18 06:58:31;;;;;;;12.73;7.07;;;;;;;33.62;48.46;100726.34;5030778;27;65549;-40
2021/03/18 07:01:06;;;;;;;8.13;6.70;;;;;;;33.64;47.88;100716.06;5040697;28;69926;-39
2021/03/18 07:03:38;;;;;;;6.82;6.13;;;;;;;33.70;48.37;100711.53;5042765;28;64935;-40
2021/03/18 07:06:18;;;;;;;8.55;6.65;;;;;;;33.74;47.74;100705.38;5045283;27;69896;-40
2021/03/18 07:08:47;;;;;;;7.65;6.80;;;;;;;33.76;47.75;100705.94;5043872;28;65245;-39
2021/03/18 07:11:23;;;;;;;8.20;6.55;;;;;;;33.78;47.89;100700.25;5039305;28;69082;-39
2021/03/18 07:13:52;;;;;;;8.40;5.78;;;;;;;33.83;47.90;100696.81;5040594;28;65889;-40
2021/03/18 07:16:22;;;;;;;6.85;6.18;;;;;;;33.86;47.82;100696.34;5033910;28;70062;-40
2021/03/18 07:18:58;;;;;;;10.60;6.70;;;;;;;33.88;47.43;100688.72;5041607;28;66412;-40
2021/03/18 07:21:39;;;;;;;6.85;6.15;;;;;;;33.91;47.38;100693.69;5028265;28;69825;-40
2021/03/18 07:24:36;;;;;;;6.82;6.15;;;;;;;33.94;47.54;100682.31;5045246;27;65487;-40
2021/03/18 07:27:11;;;;;;;7.30;6.25;;;;;;;34.03;47.31;100675.38;5023952;28;69300;-41
2021/03/18 07:29:43;;;;;;;6.70;6.10;;;;;;;34.05;47.47;100673.28;5044763;28;66035;-41
2021/03/18 07:32:14;;;;;;;6.90;6.10;;;;;;;34.05;47.59;100676.00;5046092;28;70686;-40
2021/03/18 07:34:45;;;;;;;9.13;6.00;;;;;;;34.08;47.68;100667.34;5048740;27;65168;-41
2021/03/18 07:37:14;;;;;;;6.35;5.72;;;;;;;34.14;47.49;100666.34;5042170;28;69106;-40
2021/03/18 07:39:44;;;;;;;10.27;5.78;;;;;;;34.11;47.70;100653.25;5036101;28;65350;-43
2021/03/18 07:42:17;;;;;;;6.15;5.65;;;;;;;34.20;47.47;100668.06;5045506;28;69438;-40
2021/03/18 07:44:48;;;;;;;7.72;5.90;;;;;;;34.18;47.49;100667.50;5045003;28;65447;-41
2021/03/18 07:47:19;;;;;;;6.22;5.63;;;;;;;34.18;47.06;100656.59;5035754;28;69293;-40
2021/03/18 07:49:53;;;;;;;6.05;5.28;;;;;;;34.24;47.04;100661.06;5045385;28;66676;-41
2021/03/18 07:52:26;;;;;;;7.60;5.25;;;;;;;34.31;47.17;100654.63;5038737;28;70176;-40
2021/03/18 07:54:58;;;;;;;6.05;5.45;;;;;;;34.35;47.06;100640.28;5048216;28;66137;-41
2021/03/18 07:57:43;;;;;;;5.80;5.30;;;;;;;34.37;46.71;100645.47;5030881;28;70026;-41
2021/03/18 08:00:16;;;;;;;7.32;4.97;;;;;;;34.40;46.90;100642.22;5039312;28;66002;-41
2021/03/18 08:02:48;;;;;;;6.75;5.57;;;;;;;34.47;47.23;100656.50;5040993;28;69309;-40
2021/03/18 08:05:41;;;;;;;9.82;5.07;;;;;;;34.45;46.58;100645.03;5043297;28;65918;-40
2021/03/18 08:08:36;;;;;;;5.25;4.85;;;;;;;34.50;46.28;100647.84;5044129;28;69883;-40
2021/03/18 08:11:16;;;;;;;6.68;5.43;;;;;;;34.56;46.26;100646.84;5044860;28;66290;-40
2021/03/18 08:13:48;;;;;;;;;;;;;;;34.64;46.09;100638.25;5044870;28;69869;-42
2021/03/18 08:16:26;;;;;;;9.30;5.40;;;;;;;34.71;46.24;100643.50;5042644;27;66671;-41
2021/03/18 08:18:57;;;;;;;5.38;4.90;;;;;;;34.70;46.46;100652.75;5040654;28;69411;-40
2021/03/18 08:21:42;;;;;;;5.28;4.60;;;;;;;34.57;46.52;100639.50;5038320;28;65912;-40
2021/03/18 08:24:15;;;;;;;5.78;4.80;;;;;;;34.74;46.30;100644.91;5040008;28;69130;-41
2021/03/18 08:26:51;;;;;;;9.70;5.22;;;;;;;34.79;46.62;100639.53;5048252;28;65224;-40
2021/03/18 08:29:38;;;;;;;6.00;5.15;;;;;;;34.81;46.06;100632.75;5043459;28;70282;-40
2021/03/18 08:32:32;;;;;;;5.18;4.68;;;;;;;34.88;45.66;100648.91;5025567;28;65957;-41
2021/03/18 08:35:07;;;;;;;5.35;4.95;;;;;;;34.92;46.29;100652.78;5039278;27;70605;-42
2021/03/18 08:38:17;;;;;;;5.18;4.60;;;;;;;34.91;46.19;100648.41;5038281;28;65329;-40
2021/03/18 08:41:04;;;;;;;7.15;4.60;;;;;;;34.91;45.76;100643.78;5035725;28;70199;-44
2021/03/18 08:44:12;;;;;;;5.28;4.43;;;;;;;34.93;45.77;100654.41;5046256;28;65835;-44
2021/03/18 08:46:49;;;;;;;4.63;4.28;;;;;;;35.04;46.22;100648.00;5007079;28;70040;-41
2021/03/18 08:49:22;;;;;;;5.15;4.75;;;;;;;35.04;45.98;100647.19;5046991;28;65238;-42
2021/03/18 08:51:56;;;;;;;6.18;4.78;;;;;;;35.08;45.73;100654.66;5037310;28;69976;-41
2021/03/18 08:54:38;;;;;;;6.70;4.43;;;;;;;35.09;45.88;100653.56;5042498;28;65446;-41
2021/03/18 08:57:32;;;;;;;4.97;4.53;;;;;;;35.13;45.63;100657.44;5044726;28;69247;-40
2021/03/18 09:00:13;;;;;;;5.07;4.57;;;;;;;35.17;45.39;100649.56;5039098;28;65902;-41
2021/03/18 09:02:47;;;;;;;6.38;4.40;;;;;;;35.23;45.18;100655.91;5036843;28;69133;-42
2021/03/18 09:05:19;;;;;;;5.90;5.30;;;;;;;35.24;45.42;100649.34;5051868;28;65847;-41
2021/03/18 09:08:02;;;;;;;6.40;4.85;;;;;;;35.28;45.47;100664.16;5040602;28;70425;-40
2021/03/18 09:10:36;;;;;;;4.93;4.43;;;;;;;35.28;45.10;100659.50;5024355;28;66183;-41
2021/03/18 09:13:16;;;;;;;11.35;4.63;;;;;;;35.24;45.37;100658.34;5035588;28;69831;-41
2021/03/18 09:15:47;;;;;;;9.65;4.72;;;;;;;35.26;45.64;100667.09;5048523;28;65357;-40
2021/03/18 09:18:20;;;;;;;8.50;4.72;;;;;;;35.32;45.77;100668.00;5049418;28;69723;-41
2021/03/18 09:20:56;;;;;;;5.18;4.60;;;;;;;35.32;45.25;100670.72;5044759;28;65756;-42
2021/03/18 09:23:32;;;;;;;9.25;5.18;;;;;;;35.33;45.24;100669.66;5036278;28;70027;-42
2021/03/18 09:26:05;;;;;;;6.28;4.60;;;;;;;35.39;45.53;100681.44;5043190;28;66339;-41
2021/03/18 09:28:40;;;;;;;5.78;4.68;;;;;;;35.35;45.33;100675.66;5048418;28;69890;-41
2021/03/18 09:31:10;;;;;;;4.57;4.10;;;;;;;35.37;45.52;100678.97;5042607;28;66639;-41
2021/03/18 09:33:43;;;;;;;4.72;4.20;;;;;;;35.35;45.37;100686.56;5037080;28;68051;-41
2021/03/18 09:36:17;;;;;;;6.75;4.53;;;;;;;35.23;45.52;100689.44;5040095;27;65437;-41
2021/03/18 09:39:10;;;;;;;6.43;3.78;;;;;;;34.86;46.73;100694.69;5035348;28;68648;-41
2021/03/18 09:41:45;;;;;;;10.93;4.10;;;;;;;34.68;47.18;100688.41;5029564;28;66216;-43
2021/03/18 09:44:25;;;;;;;11.43;3.83;;;;;;;34.44;47.57;100670.63;5023095;28;69200;-42
2021/03/18 09:47:00;;;;;;;6.65;3.80;;;;;;;34.54;47.72;100687.09;5033245;28;65380;-43
2021/03/18 09:49:34;;;;;;;9.98;4.82;;;;;;;34.58;47.70;100699.19;5031998;28;68493;-41
2021/03/18 09:52:27;;;;;;;11.60;3.90;;;;;;;34.53;47.87;100699.09;5035072;28;65486;-43
2021/03/18 09:55:02;;;;;;;6.95;4.20;;;;;;;34.57;47.73;100702.97;5034702;28;69959;-45
2021/03/18 09:57:33;;;;;;;8.52;4.35;;;;;;;34.55;47.68;100701.53;5033871;28;65758;-42
2021/03/18 10:00:09;;;;;;;5.93;4.28;;;;;;;34.51;47.70;100701.22;5029203;28;70372;-43
2021/03/18 10:02:39;;;;;;;7.03;3.78;;;;;;;34.50;47.80;100706.94;5033597;28;65281;-42
2021/03/18 10:05:09;;;;;;;4.45;3.75;;;;;;;34.42;48.29;100705.44;5022933;28;70228;-41
2021/03/18 10:07:39;;;;;;;5.10;3.58;;;;;;;34.42;48.32;100702.72;5033193;28;65188;-42
2021/03/18 10:10:11;;;;;;;4.15;3.53;;;;;;;34.36;48.26;100704.53;5023240;28;69422;-44
2021/03/18 10:12:41;;;;;;;4.30;3.90;;;;;;;34.39;47.87;100706.78;5035492;28;65497;-41
2021/03/18 10:15:13;;;;;;;5.90;4.53;;;;;;;34.32;48.40;100708.00;5033591;27;70770;-37
2021/03/18 10:17:44;;;;;;;5.80;4.03;;;;;;;34.31;48.50;100722.69;5037585;28;65285;-40
2021/03/18 10:20:25;;;;;;;9.98;4.30;;;;;;;34.25;48.63;100719.88;5036644;28;69752;-38
2021/03/18 10:23:01;;;;;;;4.38;3.63;;;;;;;34.16;48.75;100724.09;5033154;28;65499;-38
2021/03/18 10:25:36;;;;;;;7.63;3.80;;;;;;;34.12;48.79;100724.84;5033360;28;69722;-41
2021/03/18 10:28:10;;;;;;;11.02;4.05;;;;;;;34.13;48.66;100724.59;5033050;28;65970;-36
2021/03/18 10:30:43;;;;;;;19.65;4.75;;;;;;;34.14;48.01;100731.69;5034870;28;69622;-38
2021/03/18 10:33:18;;;;;;;5.57;4.70;;;;;;;34.10;47.68;100746.03;5034215;28;65444;-34
2021/03/18 10:35:55;;;;;;;6.80;4.95;;;;;;;34.06;47.18;100734.81;5037075;28;69038;-39
2021/03/18 10:38:35;;;;;;;19.05;5.60;;;;;;;33.98;47.61;100743.34;5036514;28;67086;-41
2021/03/18 10:41:11;;;;;;;20.58;5.45;;;;;;;33.96;47.31;100746.31;5037609;28;69914;-38
2021/03/18 10:43:43;;;;;;;7.72;5.72;;;;;;;33.92;47.66;100736.16;5049109;28;67544;-37
2021/03/18 10:46:18;;;;;;;11.13;5.30;;;;;;;33.80;47.37;100737.03;5041835;27;70424;-36
2021/03/18 10:48:49;;;;;;;13.90;5.32;;;;;;;33.79;47.65;100729.97;5037817;28;65863;-35
2021/03/18 10:51:20;;;;;;;5.10;4.43;;;;;;;33.83;47.50;100740.34;5044266;28;69360;-34
2021/03/18 10:53:52;;;;;;;12.32;5.03;;;;;;;33.81;48.08;100744.13;5035624;28;65760;-36
2021/03/18 10:56:28;;;;;;;9.07;4.97;;;;;;;33.86;47.74;100748.03;5030728;28;70538;-34
2021/03/18 10:59:14;;;;;;;8.00;5.82;;;;;;;33.86;47.81;100748.03;5042020;27;66189;-35
2021/03/18 11:01:44;;;;;;;8.98;5.45;;;;;;;33.92;47.47;100744.31;5030591;28;69979;-39
2021/03/18 11:04:14;;;;;;;9.63;6.10;;;;;;;34.04;47.55;100742.34;5032595;28;65285;-39
2021/03/18 11:06:51;;;;;;;22.30;6.70;;;;;;;34.21;47.33;100748.69;5033529;28;68930;-40
2021/03/18 11:09:26;;;;;;;14.77;6.45;;;;;;;34.32;47.27;100748.84;5030194;28;65592;-36
2021/03/18 11:12:00;;;;;;;16.20;7.20;;;;;;;34.30;47.31;100750.97;5034659;28;43743;-42
2021/03/18 11:14:31;;;;;;;16.83;7.35;;;;;;;34.17;47.44;100725.75;5064129;28;64658;-41
2021/03/18 11:17:08;;;;;;;15.40;6.00;;;;;;;34.27;47.41;100757.78;5029299;28;70186;-40
2021/03/18 11:19:38;;;;;;;9.60;5.65;;;;;;;34.23;46.43;100746.53;5042131;27;65135;-43
2021/03/18 11:22:08;;;;;;;13.25;5.78;;;;;;;34.18;45.13;100749.16;5032143;28;69325;-45
2021/03/18 11:24:38;;;;;;;5.72;5.22;;;;;;;34.06;44.42;100751.13;5029051;28;66035;-42
2021/03/18 11:27:08;;;;;;;6.13;4.97;;;;;;;33.99;43.49;100758.59;5033637;28;69849;-44
2021/03/18 11:29:38;;;;;;;8.15;4.60;;;;;;;33.89;42.67;100755.69;5036610;28;65921;-43
2021/03/18 11:32:08;;;;;;;8.23;4.47;;;;;;;33.77;42.42;100748.41;5033729;28;69311;-42
2021/03/18 11:34:40;;;;;;;4.88;4.38;;;;;;;33.70;41.76;100760.50;5026407;28;64199;-43
2021/03/18 11:37:13;;;;;;;4.50;4.13;;;;;;;33.59;41.18;100762.19;5034910;28;70176;-44
2021/03/18 11:39:43;;;;;;;4.97;4.57;;;;;;;33.49;40.78;100770.09;5033238;28;65361;-42
2021/03/18 11:42:13;;;;;;;9.63;4.15;;;;;;;33.40;40.34;100774.28;5034430;28;69983;-42
2021/03/18 11:44:43;;;;;;;4.20;3.90;;;;;;;33.30;40.11;100770.28;5034726;28;66239;-43
2021/03/18 11:47:15;;;;;;;4.47;4.07;;;;;;;33.19;40.13;100776.56;5034440;28;69083;-41
2021/03/18 11:49:45;;;;;;;3.85;3.55;;;;;;;33.13;39.59;100775.63;5032895;28;65623;-41
2021/03/18 11:52:15;;;;;;;4.18;3.88;;;;;;;33.05;39.42;100777.91;5034467;28;69789;-41
2021/03/18 11:54:45;;;;;;;4.38;4.07;;;;;;;32.81;39.07;100764.28;5033731;28;66564;-42
2021/03/18 11:57:15;;;;;;;3.80;3.50;;;;;;;32.89;38.75;100785.66;5033559;28;69048;-41